sensor_id;sensor_type;location;lat;lon;timestamp;P1;durP1;ratioP1;P2;durP2;ratioP2
56051;SDS011;41919;42.648;23.384;2023-06-26T00:01:29;19.42;;;14.07;;
56051;SDS011;41919;42.648;23.384;2023-06-26T00:03:56;18.00;;;12.75;;
56051;SDS011;41919;42.648;23.384;2023-06-26T00:06:22;20.25;;;13.45;;
56051;SDS011;41919;42.648;23.384;2023-06-26T00:08:49;21.38;;;13.88;;
56051;SDS011;41919;42.648;23.384;2023-06-26T00:11:15;20.60;;;14.02;;
56051;SDS011;41919;42.648;23.384;2023-06-26T00:13:41;20.00;;;12.93;;
56051;SDS011;41919;42.648;23.384;2023-06-26T00:16:06;20.33;;;13.48;;
56051;SDS011;41919;42.648;23.384;2023-06-26T00:18:32;21.60;;;13.63;;
56051;SDS011;41919;42.648;23.384;2023-06-26T00:20:57;22.63;;;12.90;;
56051;SDS011;41919;42.648;23.384;2023-06-26T00:23:23;19.70;;;12.65;;
56051;SDS011;41919;42.648;23.384;2023-06-26T00:25:48;16.95;;;12.52;;
56051;SDS011;41919;42.648;23.384;2023-06-26T00:28:13;16.52;;;12.07;;
56051;SDS011;41919;42.648;23.384;2023-06-26T00:30:39;17.75;;;12.70;;
56051;SDS011;41919;42.648;23.384;2023-06-26T00:33:04;17.15;;;12.38;;
56051;SDS011;41919;42.648;23.384;2023-06-26T00:35:29;16.70;;;12.30;;
56051;SDS011;41919;42.648;23.384;2023-06-26T00:37:55;16.35;;;11.52;;
56051;SDS011;41919;42.648;23.384;2023-06-26T00:40:20;17.17;;;12.48;;
56051;SDS011;41919;42.648;23.384;2023-06-26T00:42:46;18.20;;;11.38;;
56051;SDS011;41919;42.648;23.384;2023-06-26T00:45:11;15.13;;;11.57;;
56051;SDS011;41919;42.648;23.384;2023-06-26T00:47:37;18.52;;;12.32;;
56051;SDS011;41919;42.648;23.384;2023-06-26T00:50:03;17.13;;;11.20;;
56051;SDS011;41919;42.648;23.384;2023-06-26T00:52:29;12.68;;;10.35;;
56051;SDS011;41919;42.648;23.384;2023-06-26T00:54:55;13.60;;;10.48;;
56051;SDS011;41919;42.648;23.384;2023-06-26T00:57:21;14.63;;;10.57;;
56051;SDS011;41919;42.648;23.384;2023-06-26T00:59:47;14.27;;;10.30;;
56051;SDS011;41919;42.648;23.384;2023-06-26T01:02:13;13.48;;;10.27;;
56051;SDS011;41919;42.648;23.384;2023-06-26T01:04:44;12.95;;;9.95;;
56051;SDS011;41919;42.648;23.384;2023-06-26T01:07:14;14.60;;;9.95;;
56051;SDS011;41919;42.648;23.384;2023-06-26T01:09:43;15.13;;;10.60;;
56051;SDS011;41919;42.648;23.384;2023-06-26T01:12:11;15.30;;;10.27;;
56051;SDS011;41919;42.648;23.384;2023-06-26T01:14:37;14.10;;;9.95;;
56051;SDS011;41919;42.648;23.384;2023-06-26T01:17:02;11.82;;;9.38;;
56051;SDS011;41919;42.648;23.384;2023-06-26T01:19:29;14.48;;;9.52;;
56051;SDS011;41919;42.648;23.384;2023-06-26T01:22:02;12.57;;;8.77;;
56051;SDS011;41919;42.648;23.384;2023-06-26T01:24:48;13.68;;;9.02;;
56051;SDS011;41919;42.648;23.384;2023-06-26T01:27:26;12.98;;;9.65;;
56051;SDS011;41919;42.648;23.384;2023-06-26T01:29:53;13.23;;;9.90;;
56051;SDS011;41919;42.648;23.384;2023-06-26T01:32:19;12.40;;;8.73;;
56051;SDS011;41919;42.648;23.384;2023-06-26T01:34:45;12.05;;;9.70;;
56051;SDS011;41919;42.648;23.384;2023-06-26T01:37:10;13.18;;;9.80;;
56051;SDS011;41919;42.648;23.384;2023-06-26T01:39:36;15.10;;;9.80;;
56051;SDS011;41919;42.648;23.384;2023-06-26T01:42:01;12.50;;;8.73;;
56051;SDS011;41919;42.648;23.384;2023-06-26T01:44:28;17.73;;;10.73;;
56051;SDS011;41919;42.648;23.384;2023-06-26T01:47:01;12.00;;;9.25;;
56051;SDS011;41919;42.648;23.384;2023-06-26T01:55:06;13.45;;;10.90;;
56051;SDS011;41919;42.648;23.384;2023-06-26T01:57:40;12.85;;;9.15;;
56051;SDS011;41919;42.648;23.384;2023-06-26T02:00:07;13.82;;;9.75;;
56051;SDS011;41919;42.648;23.384;2023-06-26T02:02:36;13.50;;;9.32;;
56051;SDS011;41919;42.648;23.384;2023-06-26T02:05:02;12.70;;;8.85;;
56051;SDS011;41919;42.648;23.384;2023-06-26T02:07:27;13.48;;;9.77;;
56051;SDS011;41919;42.648;23.384;2023-06-26T02:09:53;14.52;;;9.65;;
56051;SDS011;41919;42.648;23.384;2023-06-26T02:12:19;12.95;;;9.98;;
56051;SDS011;41919;42.648;23.384;2023-06-26T02:14:44;13.25;;;9.82;;
56051;SDS011;41919;42.648;23.384;2023-06-26T02:17:10;20.60;;;10.65;;
56051;SDS011;41919;42.648;23.384;2023-06-26T02:19:35;14.38;;;10.27;;
56051;SDS011;41919;42.648;23.384;2023-06-26T02:22:00;14.80;;;9.98;;
56051;SDS011;41919;42.648;23.384;2023-06-26T02:24:26;13.63;;;9.55;;
56051;SDS011;41919;42.648;23.384;2023-06-26T02:26:54;13.10;;;9.95;;
56051;SDS011;41919;42.648;23.384;2023-06-26T02:29:20;12.50;;;9.38;;
56051;SDS011;41919;42.648;23.384;2023-06-26T02:31:45;13.48;;;10.25;;
56051;SDS011;41919;42.648;23.384;2023-06-26T02:34:11;14.30;;;10.68;;
56051;SDS011;41919;42.648;23.384;2023-06-26T02:36:36;12.88;;;11.13;;
56051;SDS011;41919;42.648;23.384;2023-06-26T02:39:02;13.68;;;10.80;;
56051;SDS011;41919;42.648;23.384;2023-06-26T02:41:27;14.55;;;10.60;;
56051;SDS011;41919;42.648;23.384;2023-06-26T02:43:52;15.75;;;10.20;;
56051;SDS011;41919;42.648;23.384;2023-06-26T02:46:18;13.18;;;10.65;;
56051;SDS011;41919;42.648;23.384;2023-06-26T02:48:43;17.30;;;11.45;;
56051;SDS011;41919;42.648;23.384;2023-06-26T02:51:08;26.65;;;17.30;;
56051;SDS011;41919;42.648;23.384;2023-06-26T02:53:34;15.20;;;11.82;;
56051;SDS011;41919;42.648;23.384;2023-06-26T02:55:59;14.80;;;11.98;;
56051;SDS011;41919;42.648;23.384;2023-06-26T02:58:25;15.93;;;11.80;;
56051;SDS011;41919;42.648;23.384;2023-06-26T03:00:50;18.25;;;12.05;;
56051;SDS011;41919;42.648;23.384;2023-06-26T03:03:16;18.33;;;12.13;;
56051;SDS011;41919;42.648;23.384;2023-06-26T03:05:42;18.48;;;12.13;;
56051;SDS011;41919;42.648;23.384;2023-06-26T03:08:07;17.38;;;12.48;;
56051;SDS011;41919;42.648;23.384;2023-06-26T03:10:33;16.67;;;12.50;;
56051;SDS011;41919;42.648;23.384;2023-06-26T03:12:58;17.42;;;13.05;;
56051;SDS011;41919;42.648;23.384;2023-06-26T03:15:23;17.48;;;13.25;;
56051;SDS011;41919;42.648;23.384;2023-06-26T03:17:49;20.67;;;12.95;;
56051;SDS011;41919;42.648;23.384;2023-06-26T03:20:14;18.70;;;12.95;;
56051;SDS011;41919;42.648;23.384;2023-06-26T03:22:40;20.25;;;13.63;;
56051;SDS011;41919;42.648;23.384;2023-06-26T03:25:06;17.88;;;13.35;;
56051;SDS011;41919;42.648;23.384;2023-06-26T03:27:31;17.88;;;13.23;;
56051;SDS011;41919;42.648;23.384;2023-06-26T03:29:56;19.15;;;12.95;;
56051;SDS011;41919;42.648;23.384;2023-06-26T03:32:22;17.90;;;12.68;;
56051;SDS011;41919;42.648;23.384;2023-06-26T03:34:47;16.75;;;12.93;;
56051;SDS011;41919;42.648;23.384;2023-06-26T03:37:12;16.58;;;12.13;;
56051;SDS011;41919;42.648;23.384;2023-06-26T03:39:38;18.10;;;12.85;;
56051;SDS011;41919;42.648;23.384;2023-06-26T03:42:03;17.17;;;12.68;;
56051;SDS011;41919;42.648;23.384;2023-06-26T03:44:29;16.92;;;12.98;;
56051;SDS011;41919;42.648;23.384;2023-06-26T03:46:54;15.75;;;12.60;;
56051;SDS011;41919;42.648;23.384;2023-06-26T03:49:20;14.20;;;12.70;;
56051;SDS011;41919;42.648;23.384;2023-06-26T03:51:45;16.02;;;12.85;;
56051;SDS011;41919;42.648;23.384;2023-06-26T03:54:11;18.42;;;12.43;;
56051;SDS011;41919;42.648;23.384;2023-06-26T03:56:36;16.00;;;12.95;;
56051;SDS011;41919;42.648;23.384;2023-06-26T03:59:02;15.55;;;12.57;;
56051;SDS011;41919;42.648;23.384;2023-06-26T04:01:27;16.60;;;12.98;;
56051;SDS011;41919;42.648;23.384;2023-06-26T04:03:53;16.00;;;13.68;;
56051;SDS011;41919;42.648;23.384;2023-06-26T04:06:19;17.80;;;13.38;;
56051;SDS011;41919;42.648;23.384;2023-06-26T04:08:44;15.82;;;12.88;;
56051;SDS011;41919;42.648;23.384;2023-06-26T04:11:09;16.60;;;12.88;;
56051;SDS011;41919;42.648;23.384;2023-06-26T04:13:35;18.70;;;14.15;;
56051;SDS011;41919;42.648;23.384;2023-06-26T04:16:00;17.80;;;12.55;;
56051;SDS011;41919;42.648;23.384;2023-06-26T04:18:26;17.95;;;13.55;;
56051;SDS011;41919;42.648;23.384;2023-06-26T04:21:08;17.05;;;13.50;;
56051;SDS011;41919;42.648;23.384;2023-06-26T04:23:36;15.90;;;12.73;;
56051;SDS011;41919;42.648;23.384;2023-06-26T04:26:02;15.48;;;12.30;;
56051;SDS011;41919;42.648;23.384;2023-06-26T04:28:28;17.17;;;12.77;;
56051;SDS011;41919;42.648;23.384;2023-06-26T04:30:54;13.77;;;11.57;;
56051;SDS011;41919;42.648;23.384;2023-06-26T04:33:19;12.68;;;10.30;;
56051;SDS011;41919;42.648;23.384;2023-06-26T04:35:44;11.27;;;9.77;;
56051;SDS011;41919;42.648;23.384;2023-06-26T04:38:13;12.52;;;10.52;;
56051;SDS011;41919;42.648;23.384;2023-06-26T04:40:41;12.27;;;10.75;;
56051;SDS011;41919;42.648;23.384;2023-06-26T04:43:07;11.93;;;10.60;;
56051;SDS011;41919;42.648;23.384;2023-06-26T04:45:33;11.57;;;10.40;;
56051;SDS011;41919;42.648;23.384;2023-06-26T04:47:58;12.73;;;10.85;;
56051;SDS011;41919;42.648;23.384;2023-06-26T04:50:25;13.43;;;11.15;;
56051;SDS011;41919;42.648;23.384;2023-06-26T04:52:51;12.75;;;10.93;;
56051;SDS011;41919;42.648;23.384;2023-06-26T04:55:16;14.13;;;11.55;;
56051;SDS011;41919;42.648;23.384;2023-06-26T04:57:41;14.02;;;10.45;;
56051;SDS011;41919;42.648;23.384;2023-06-26T05:00:07;12.13;;;10.77;;
56051;SDS011;41919;42.648;23.384;2023-06-26T05:02:35;13.32;;;11.00;;
56051;SDS011;41919;42.648;23.384;2023-06-26T05:05:01;12.65;;;11.35;;
56051;SDS011;41919;42.648;23.384;2023-06-26T05:07:27;16.27;;;11.93;;
56051;SDS011;41919;42.648;23.384;2023-06-26T05:09:52;13.07;;;11.75;;
56051;SDS011;41919;42.648;23.384;2023-06-26T05:12:17;14.68;;;11.82;;
56051;SDS011;41919;42.648;23.384;2023-06-26T05:14:43;15.32;;;11.75;;
56051;SDS011;41919;42.648;23.384;2023-06-26T05:17:08;14.30;;;11.43;;
56051;SDS011;41919;42.648;23.384;2023-06-26T05:19:34;13.90;;;11.77;;
56051;SDS011;41919;42.648;23.384;2023-06-26T05:22:00;12.85;;;11.40;;
56051;SDS011;41919;42.648;23.384;2023-06-26T05:24:28;15.57;;;11.30;;
56051;SDS011;41919;42.648;23.384;2023-06-26T05:26:55;16.45;;;11.85;;
56051;SDS011;41919;42.648;23.384;2023-06-26T05:29:21;16.45;;;11.93;;
56051;SDS011;41919;42.648;23.384;2023-06-26T05:31:47;16.33;;;11.02;;
56051;SDS011;41919;42.648;23.384;2023-06-26T05:34:14;13.70;;;11.60;;
56051;SDS011;41919;42.648;23.384;2023-06-26T05:36:42;13.75;;;11.55;;
56051;SDS011;41919;42.648;23.384;2023-06-26T05:39:08;13.35;;;11.43;;
56051;SDS011;41919;42.648;23.384;2023-06-26T05:41:34;15.35;;;11.32;;
56051;SDS011;41919;42.648;23.384;2023-06-26T05:44:00;14.55;;;11.70;;
56051;SDS011;41919;42.648;23.384;2023-06-26T05:46:25;12.57;;;11.20;;
56051;SDS011;41919;42.648;23.384;2023-06-26T05:48:50;14.68;;;11.68;;
56051;SDS011;41919;42.648;23.384;2023-06-26T05:51:16;15.70;;;11.75;;
56051;SDS011;41919;42.648;23.384;2023-06-26T05:53:42;13.02;;;10.65;;
56051;SDS011;41919;42.648;23.384;2023-06-26T05:56:07;14.07;;;10.35;;
56051;SDS011;41919;42.648;23.384;2023-06-26T05:58:33;12.68;;;10.70;;
56051;SDS011;41919;42.648;23.384;2023-06-26T06:00:59;12.60;;;10.13;;
56051;SDS011;41919;42.648;23.384;2023-06-26T06:03:25;11.57;;;10.10;;
56051;SDS011;41919;42.648;23.384;2023-06-26T06:05:50;12.57;;;9.98;;
56051;SDS011;41919;42.648;23.384;2023-06-26T06:08:15;15.00;;;10.07;;
56051;SDS011;41919;42.648;23.384;2023-06-26T06:10:41;11.60;;;10.32;;
56051;SDS011;41919;42.648;23.384;2023-06-26T06:13:06;12.23;;;10.18;;
56051;SDS011;41919;42.648;23.384;2023-06-26T06:15:32;11.77;;;10.18;;
56051;SDS011;41919;42.648;23.384;2023-06-26T06:17:57;13.07;;;10.45;;
56051;SDS011;41919;42.648;23.384;2023-06-26T06:20:22;12.00;;;10.82;;
56051;SDS011;41919;42.648;23.384;2023-06-26T06:22:48;12.05;;;9.27;;
56051;SDS011;41919;42.648;23.384;2023-06-26T06:25:14;12.65;;;9.55;;
56051;SDS011;41919;42.648;23.384;2023-06-26T06:27:40;10.13;;;9.13;;
56051;SDS011;41919;42.648;23.384;2023-06-26T06:30:06;12.82;;;9.82;;
56051;SDS011;41919;42.648;23.384;2023-06-26T06:32:32;11.93;;;10.05;;
56051;SDS011;41919;42.648;23.384;2023-06-26T06:34:58;12.70;;;10.30;;
56051;SDS011;41919;42.648;23.384;2023-06-26T06:37:23;12.85;;;10.07;;
56051;SDS011;41919;42.648;23.384;2023-06-26T06:39:49;10.98;;;9.80;;
56051;SDS011;41919;42.648;23.384;2023-06-26T06:42:14;10.90;;;9.90;;
56051;SDS011;41919;42.648;23.384;2023-06-26T06:44:40;10.77;;;9.38;;
56051;SDS011;41919;42.648;23.384;2023-06-26T06:47:05;10.55;;;8.77;;
56051;SDS011;41919;42.648;23.384;2023-06-26T06:49:30;11.35;;;9.10;;
56051;SDS011;41919;42.648;23.384;2023-06-26T06:51:56;10.57;;;9.57;;
56051;SDS011;41919;42.648;23.384;2023-06-26T06:54:21;10.93;;;9.10;;
56051;SDS011;41919;42.648;23.384;2023-06-26T06:56:46;11.40;;;8.73;;
56051;SDS011;41919;42.648;23.384;2023-06-26T06:59:12;10.88;;;8.45;;
56051;SDS011;41919;42.648;23.384;2023-06-26T07:01:38;10.88;;;9.18;;
56051;SDS011;41919;42.648;23.384;2023-06-26T07:04:05;9.68;;;7.85;;
56051;SDS011;41919;42.648;23.384;2023-06-26T07:06:30;9.32;;;8.30;;
56051;SDS011;41919;42.648;23.384;2023-06-26T07:08:55;10.48;;;8.48;;
56051;SDS011;41919;42.648;23.384;2023-06-26T07:11:21;9.85;;;8.13;;
56051;SDS011;41919;42.648;23.384;2023-06-26T07:13:46;8.35;;;7.53;;
56051;SDS011;41919;42.648;23.384;2023-06-26T07:16:12;7.82;;;7.05;;
56051;SDS011;41919;42.648;23.384;2023-06-26T07:18:37;7.95;;;7.15;;
56051;SDS011;41919;42.648;23.384;2023-06-26T07:21:03;9.35;;;7.22;;
56051;SDS011;41919;42.648;23.384;2023-06-26T07:23:29;8.35;;;7.00;;
56051;SDS011;41919;42.648;23.384;2023-06-26T07:25:55;8.60;;;7.45;;
56051;SDS011;41919;42.648;23.384;2023-06-26T07:28:20;10.02;;;7.47;;
56051;SDS011;41919;42.648;23.384;2023-06-26T07:30:46;8.15;;;7.25;;
56051;SDS011;41919;42.648;23.384;2023-06-26T07:33:11;9.48;;;6.95;;
56051;SDS011;41919;42.648;23.384;2023-06-26T07:35:37;8.63;;;6.80;;
56051;SDS011;41919;42.648;23.384;2023-06-26T07:38:03;7.43;;;6.72;;
56051;SDS011;41919;42.648;23.384;2023-06-26T07:40:28;7.47;;;6.28;;
56051;SDS011;41919;42.648;23.384;2023-06-26T07:42:54;7.40;;;6.75;;
56051;SDS011;41919;42.648;23.384;2023-06-26T07:45:19;8.52;;;6.68;;
56051;SDS011;41919;42.648;23.384;2023-06-26T07:47:45;6.90;;;6.20;;
56051;SDS011;41919;42.648;23.384;2023-06-26T07:50:10;6.30;;;5.70;;
56051;SDS011;41919;42.648;23.384;2023-06-26T07:52:36;6.80;;;5.93;;
56051;SDS011;41919;42.648;23.384;2023-06-26T07:55:01;6.95;;;5.68;;
56051;SDS011;41919;42.648;23.384;2023-06-26T07:57:28;6.00;;;5.40;;
56051;SDS011;41919;42.648;23.384;2023-06-26T07:59:54;7.10;;;5.35;;
56051;SDS011;41919;42.648;23.384;2023-06-26T08:02:20;6.88;;;5.70;;
56051;SDS011;41919;42.648;23.384;2023-06-26T08:04:46;5.97;;;5.38;;
56051;SDS011;41919;42.648;23.384;2023-06-26T08:07:11;5.90;;;5.40;;
56051;SDS011;41919;42.648;23.384;2023-06-26T08:09:38;5.72;;;5.15;;
56051;SDS011;41919;42.648;23.384;2023-06-26T08:12:04;7.40;;;4.85;;
56051;SDS011;41919;42.648;23.384;2023-06-26T08:14:30;5.30;;;4.80;;
56051;SDS011;41919;42.648;23.384;2023-06-26T08:16:56;5.68;;;4.63;;
56051;SDS011;41919;42.648;23.384;2023-06-26T08:19:22;5.85;;;5.25;;
56051;SDS011;41919;42.648;23.384;2023-06-26T08:21:47;5.47;;;4.97;;
56051;SDS011;41919;42.648;23.384;2023-06-26T08:24:13;5.30;;;4.80;;
56051;SDS011;41919;42.648;23.384;2023-06-26T08:26:41;4.78;;;4.38;;
56051;SDS011;41919;42.648;23.384;2023-06-26T08:29:07;5.50;;;4.97;;
56051;SDS011;41919;42.648;23.384;2023-06-26T08:31:35;5.50;;;5.00;;
56051;SDS011;41919;42.648;23.384;2023-06-26T08:34:04;29.02;;;6.53;;
56051;SDS011;41919;42.648;23.384;2023-06-26T08:36:30;6.30;;;4.85;;
56051;SDS011;41919;42.648;23.384;2023-06-26T08:38:56;5.72;;;4.55;;
56051;SDS011;41919;42.648;23.384;2023-06-26T08:41:21;6.75;;;4.40;;
56051;SDS011;41919;42.648;23.384;2023-06-26T08:43:47;4.93;;;4.50;;
56051;SDS011;41919;42.648;23.384;2023-06-26T08:46:14;5.63;;;3.97;;
56051;SDS011;41919;42.648;23.384;2023-06-26T08:48:39;5.05;;;4.32;;
56051;SDS011;41919;42.648;23.384;2023-06-26T08:53:52;6.30;;;4.60;;
56051;SDS011;41919;42.648;23.384;2023-06-26T08:56:20;5.80;;;4.45;;
56051;SDS011;41919;42.648;23.384;2023-06-26T08:58:48;8.27;;;4.75;;
56051;SDS011;41919;42.648;23.384;2023-06-26T09:01:14;5.30;;;4.80;;
56051;SDS011;41919;42.648;23.384;2023-06-26T09:03:40;5.32;;;4.82;;
56051;SDS011;41919;42.648;23.384;2023-06-26T09:06:06;6.75;;;4.88;;
56051;SDS011;41919;42.648;23.384;2023-06-26T09:08:32;5.53;;;4.93;;
56051;SDS011;41919;42.648;23.384;2023-06-26T09:10:57;5.43;;;4.88;;
56051;SDS011;41919;42.648;23.384;2023-06-26T09:13:23;4.80;;;4.40;;
56051;SDS011;41919;42.648;23.384;2023-06-26T09:15:49;5.63;;;4.43;;
56051;SDS011;41919;42.648;23.384;2023-06-26T09:18:16;5.35;;;4.32;;
56051;SDS011;41919;42.648;23.384;2023-06-26T09:20:43;6.28;;;4.15;;
56051;SDS011;41919;42.648;23.384;2023-06-26T09:23:08;5.38;;;4.57;;
56051;SDS011;41919;42.648;23.384;2023-06-26T09:25:37;5.10;;;4.30;;
56051;SDS011;41919;42.648;23.384;2023-06-26T09:28:04;5.28;;;4.03;;
56051;SDS011;41919;42.648;23.384;2023-06-26T09:30:31;4.78;;;4.20;;
56051;SDS011;41919;42.648;23.384;2023-06-26T09:32:57;5.82;;;4.57;;
56051;SDS011;41919;42.648;23.384;2023-06-26T09:35:23;5.68;;;4.65;;
56051;SDS011;41919;42.648;23.384;2023-06-26T09:37:49;6.45;;;4.53;;
56051;SDS011;41919;42.648;23.384;2023-06-26T09:40:15;5.97;;;4.72;;
56051;SDS011;41919;42.648;23.384;2023-06-26T09:42:41;5.38;;;4.88;;
56051;SDS011;41919;42.648;23.384;2023-06-26T09:45:07;6.28;;;4.22;;
56051;SDS011;41919;42.648;23.384;2023-06-26T09:47:33;5.18;;;4.30;;
56051;SDS011;41919;42.648;23.384;2023-06-26T09:49:59;5.70;;;4.45;;
56051;SDS011;41919;42.648;23.384;2023-06-26T09:52:27;6.50;;;4.65;;
56051;SDS011;41919;42.648;23.384;2023-06-26T09:55:28;5.35;;;4.25;;
56051;SDS011;41919;42.648;23.384;2023-06-26T09:57:48;6.47;;;4.78;;
56051;SDS011;41919;42.648;23.384;2023-06-26T10:00:14;6.07;;;4.72;;
56051;SDS011;41919;42.648;23.384;2023-06-26T10:02:41;5.70;;;4.50;;
56051;SDS011;41919;42.648;23.384;2023-06-26T10:05:06;8.20;;;4.80;;
56051;SDS011;41919;42.648;23.384;2023-06-26T10:07:32;5.20;;;4.70;;
56051;SDS011;41919;42.648;23.384;2023-06-26T10:09:58;7.45;;;4.95;;
56051;SDS011;41919;42.648;23.384;2023-06-26T10:12:28;5.95;;;4.57;;
56051;SDS011;41919;42.648;23.384;2023-06-26T10:14:56;6.82;;;4.80;;
56051;SDS011;41919;42.648;23.384;2023-06-26T10:17:22;5.78;;;5.15;;
56051;SDS011;41919;42.648;23.384;2023-06-26T10:19:50;6.13;;;4.78;;
56051;SDS011;41919;42.648;23.384;2023-06-26T10:22:19;6.55;;;4.78;;
56051;SDS011;41919;42.648;23.384;2023-06-26T10:24:45;5.55;;;4.72;;
56051;SDS011;41919;42.648;23.384;2023-06-26T10:27:20;5.68;;;4.53;;
56051;SDS011;41919;42.648;23.384;2023-06-26T10:29:51;5.63;;;4.47;;
56051;SDS011;41919;42.648;23.384;2023-06-26T10:32:19;6.13;;;4.72;;
56051;SDS011;41919;42.648;23.384;2023-06-26T10:34:46;6.57;;;4.90;;
56051;SDS011;41919;42.648;23.384;2023-06-26T10:37:12;6.32;;;5.55;;
56051;SDS011;41919;42.648;23.384;2023-06-26T10:39:48;5.60;;;4.93;;
56051;SDS011;41919;42.648;23.384;2023-06-26T10:42:14;6.18;;;4.53;;
56051;SDS011;41919;42.648;23.384;2023-06-26T10:44:41;7.38;;;5.20;;
56051;SDS011;41919;42.648;23.384;2023-06-26T10:47:32;8.57;;;5.32;;
56051;SDS011;41919;42.648;23.384;2023-06-26T10:50:13;6.63;;;5.15;;
56051;SDS011;41919;42.648;23.384;2023-06-26T10:52:43;6.55;;;5.40;;
56051;SDS011;41919;42.648;23.384;2023-06-26T10:55:09;9.30;;;5.30;;
56051;SDS011;41919;42.648;23.384;2023-06-26T10:57:35;6.93;;;4.78;;
56051;SDS011;41919;42.648;23.384;2023-06-26T11:00:14;5.78;;;4.53;;
56051;SDS011;41919;42.648;23.384;2023-06-26T11:02:51;8.43;;;4.35;;
56051;SDS011;41919;42.648;23.384;2023-06-26T11:05:23;7.93;;;4.53;;
56051;SDS011;41919;42.648;23.384;2023-06-26T11:08:03;6.43;;;4.88;;
56051;SDS011;41919;42.648;23.384;2023-06-26T11:10:50;10.73;;;5.30;;
56051;SDS011;41919;42.648;23.384;2023-06-26T11:13:17;6.80;;;5.30;;
56051;SDS011;41919;42.648;23.384;2023-06-26T11:15:43;5.88;;;4.93;;
56051;SDS011;41919;42.648;23.384;2023-06-26T11:18:12;6.28;;;5.20;;
56051;SDS011;41919;42.648;23.384;2023-06-26T11:20:38;7.95;;;5.10;;
56051;SDS011;41919;42.648;23.384;2023-06-26T11:23:04;5.13;;;4.43;;
56051;SDS011;41919;42.648;23.384;2023-06-26T11:25:34;4.65;;;4.22;;
56051;SDS011;41919;42.648;23.384;2023-06-26T11:28:00;5.28;;;4.50;;
56051;SDS011;41919;42.648;23.384;2023-06-26T11:30:26;4.88;;;4.38;;
56051;SDS011;41919;42.648;23.384;2023-06-26T11:32:52;6.43;;;5.00;;
56051;SDS011;41919;42.648;23.384;2023-06-26T11:35:23;6.60;;;5.00;;
56051;SDS011;41919;42.648;23.384;2023-06-26T11:37:55;9.00;;;5.07;;
56051;SDS011;41919;42.648;23.384;2023-06-26T11:40:29;6.57;;;4.70;;
56051;SDS011;41919;42.648;23.384;2023-06-26T11:42:57;5.28;;;4.78;;
56051;SDS011;41919;42.648;23.384;2023-06-26T11:45:24;8.35;;;5.53;;
56051;SDS011;41919;42.648;23.384;2023-06-26T11:47:49;5.50;;;4.50;;
56051;SDS011;41919;42.648;23.384;2023-06-26T11:50:15;6.07;;;4.60;;
56051;SDS011;41919;42.648;23.384;2023-06-26T11:52:42;5.60;;;4.40;;
56051;SDS011;41919;42.648;23.384;2023-06-26T11:55:08;4.90;;;4.15;;
56051;SDS011;41919;42.648;23.384;2023-06-26T11:57:35;7.05;;;3.72;;
56051;SDS011;41919;42.648;23.384;2023-06-26T12:00:10;5.90;;;4.53;;
56051;SDS011;41919;42.648;23.384;2023-06-26T12:02:39;4.80;;;3.83;;
56051;SDS011;41919;42.648;23.384;2023-06-26T12:05:05;6.97;;;5.00;;
56051;SDS011;41919;42.648;23.384;2023-06-26T12:07:32;5.32;;;4.60;;
56051;SDS011;41919;42.648;23.384;2023-06-26T12:09:58;6.40;;;5.00;;
56051;SDS011;41919;42.648;23.384;2023-06-26T12:12:25;5.55;;;4.38;;
56051;SDS011;41919;42.648;23.384;2023-06-26T12:14:51;6.82;;;4.40;;
56051;SDS011;41919;42.648;23.384;2023-06-26T12:17:17;5.18;;;4.18;;
56051;SDS011;41919;42.648;23.384;2023-06-26T12:19:46;5.43;;;4.60;;
56051;SDS011;41919;42.648;23.384;2023-06-26T12:22:16;6.05;;;4.63;;
56051;SDS011;41919;42.648;23.384;2023-06-26T12:24:42;7.32;;;4.18;;
56051;SDS011;41919;42.648;23.384;2023-06-26T12:27:09;5.07;;;4.40;;
56051;SDS011;41919;42.648;23.384;2023-06-26T12:29:37;4.10;;;3.70;;
56051;SDS011;41919;42.648;23.384;2023-06-26T12:32:04;4.95;;;4.38;;
56051;SDS011;41919;42.648;23.384;2023-06-26T12:34:35;6.03;;;4.80;;
56051;SDS011;41919;42.648;23.384;2023-06-26T12:37:03;7.47;;;3.90;;
56051;SDS011;41919;42.648;23.384;2023-06-26T12:39:52;5.63;;;3.97;;
56051;SDS011;41919;42.648;23.384;2023-06-26T12:42:26;5.25;;;4.00;;
56051;SDS011;41919;42.648;23.384;2023-06-26T12:44:52;6.85;;;4.47;;
56051;SDS011;41919;42.648;23.384;2023-06-26T12:47:25;4.50;;;4.10;;
56051;SDS011;41919;42.648;23.384;2023-06-26T12:49:52;6.45;;;3.92;;
56051;SDS011;41919;42.648;23.384;2023-06-26T12:52:18;4.53;;;4.10;;
56051;SDS011;41919;42.648;23.384;2023-06-26T12:54:45;5.13;;;3.72;;
56051;SDS011;41919;42.648;23.384;2023-06-26T12:57:12;8.32;;;4.32;;
56051;SDS011;41919;42.648;23.384;2023-06-26T12:59:39;5.60;;;4.40;;
56051;SDS011;41919;42.648;23.384;2023-06-26T13:02:05;7.07;;;4.28;;
56051;SDS011;41919;42.648;23.384;2023-06-26T13:04:31;6.00;;;4.80;;
56051;SDS011;41919;42.648;23.384;2023-06-26T13:06:57;6.72;;;4.45;;
56051;SDS011;41919;42.648;23.384;2023-06-26T13:09:23;13.20;;;4.60;;
56051;SDS011;41919;42.648;23.384;2023-06-26T13:11:50;8.00;;;5.13;;
56051;SDS011;41919;42.648;23.384;2023-06-26T13:14:16;6.60;;;5.13;;
56051;SDS011;41919;42.648;23.384;2023-06-26T13:16:41;6.57;;;4.68;;
56051;SDS011;41919;42.648;23.384;2023-06-26T13:19:06;6.22;;;4.78;;
56051;SDS011;41919;42.648;23.384;2023-06-26T13:21:35;6.50;;;4.90;;
56051;SDS011;41919;42.648;23.384;2023-06-26T13:24:01;7.15;;;4.93;;
56051;SDS011;41919;42.648;23.384;2023-06-26T13:26:31;9.25;;;5.60;;
56051;SDS011;41919;42.648;23.384;2023-06-26T13:28:57;7.40;;;4.82;;
56051;SDS011;41919;42.648;23.384;2023-06-26T13:31:23;8.07;;;4.70;;
56051;SDS011;41919;42.648;23.384;2023-06-26T13:33:48;6.00;;;4.60;;
56051;SDS011;41919;42.648;23.384;2023-06-26T13:36:14;5.65;;;4.90;;
56051;SDS011;41919;42.648;23.384;2023-06-26T13:38:40;6.43;;;5.07;;
56051;SDS011;41919;42.648;23.384;2023-06-26T13:41:06;8.75;;;4.93;;
56051;SDS011;41919;42.648;23.384;2023-06-26T13:43:31;6.38;;;4.40;;
56051;SDS011;41919;42.648;23.384;2023-06-26T13:45:57;5.30;;;4.20;;
56051;SDS011;41919;42.648;23.384;2023-06-26T13:48:22;7.10;;;4.78;;
56051;SDS011;41919;42.648;23.384;2023-06-26T13:50:50;4.82;;;4.32;;
56051;SDS011;41919;42.648;23.384;2023-06-26T13:53:16;6.38;;;4.68;;
56051;SDS011;41919;42.648;23.384;2023-06-26T13:55:42;5.70;;;4.80;;
56051;SDS011;41919;42.648;23.384;2023-06-26T13:58:08;6.90;;;4.47;;
56051;SDS011;41919;42.648;23.384;2023-06-26T14:00:34;5.93;;;4.43;;
56051;SDS011;41919;42.648;23.384;2023-06-26T14:03:04;6.60;;;4.50;;
56051;SDS011;41919;42.648;23.384;2023-06-26T14:05:31;6.47;;;4.80;;
56051;SDS011;41919;42.648;23.384;2023-06-26T14:07:56;7.75;;;4.85;;
56051;SDS011;41919;42.648;23.384;2023-06-26T14:10:22;8.13;;;5.60;;
56051;SDS011;41919;42.648;23.384;2023-06-26T14:12:48;6.38;;;4.70;;
56051;SDS011;41919;42.648;23.384;2023-06-26T14:15:13;9.27;;;4.55;;
56051;SDS011;41919;42.648;23.384;2023-06-26T14:17:38;5.60;;;4.53;;
56051;SDS011;41919;42.648;23.384;2023-06-26T14:20:05;5.90;;;4.78;;
56051;SDS011;41919;42.648;23.384;2023-06-26T14:22:35;5.00;;;4.45;;
56051;SDS011;41919;42.648;23.384;2023-06-26T14:25:00;4.95;;;4.47;;
56051;SDS011;41919;42.648;23.384;2023-06-26T14:27:26;4.20;;;3.75;;
56051;SDS011;41919;42.648;23.384;2023-06-26T14:29:51;5.18;;;4.60;;